Time;durP1;ratioP1;P1;durP2;ratioP2;P2;SDS_P1;SDS_P2;PMS_P1;PMS_P2;Temp;Humidity;BMP_temperature;BMP_pressure;BME280_temperature;BME280_humidity;BME280_pressure;Samples;Min_cycle;Max_cycle;Signal;HPM_P1;HPM_P2
2021/04/14 00:01:17;;;;;;;;;;;;;;;;;;5046112;28;19916;-61
2021/04/14 00:03:45;;;;;;;;;;;;;;;;;;5032445;28;19916;-62
2021/04/14 00:06:11;;;;;;;;;;;;;;;;;;5051634;28;19912;-61
2021/04/14 00:08:36;;;;;;;;;;;;;;;;;;5041248;28;19991;-60
2021/04/14 00:11:02;;;;;;;;;;;;;;;;;;5038928;28;19909;-60
2021/04/14 00:13:31;;;;;;;;;;;;;;;;;;5052475;28;20012;-61
2021/04/14 00:15:58;;;;;;;;;;;;;;;;;;5033953;28;20004;-61
2021/04/14 00:18:24;;;;;;;;;;;;;;;;;;5032305;28;19905;-59
2021/04/14 00:20:50;;;;;;;;;;;;;;;;;;5032201;28;20317;-63
2021/04/14 00:23:16;;;;;;;;;;;;;;;;;;5032503;28;19905;-60
2021/04/14 00:25:44;;;;;;;;;;;;;;;;;;5032145;28;19923;-61
2021/04/14 00:28:10;;;;;;;;;;;;;;;;;;5042283;28;19905;-61
2021/04/14 00:30:36;;;;;;;;;;;;;;;;;;5035957;28;19912;-65
2021/04/14 00:33:02;;;;;;;;;;;;;;;;;;5037586;28;19905;-61
2021/04/14 00:35:28;;;;;;;;;;;;;;;;;;5039014;28;20370;-61
2021/04/14 00:37:54;;;;;;;;;;;;;;;;;;5039223;28;20268;-61
2021/04/14 00:40:20;;;;;;;;;;;;;;;;;;5038611;28;19950;-60
2021/04/14 00:42:45;;;;;;;;;;;;;;;;;;5057094;28;19991;-63
2021/04/14 00:45:11;;;;;;;;;;;;;;;;;;5058123;28;19916;-62
2021/04/14 00:47:37;;;;;;;;;;;;;;;;;;5043445;28;19909;-61
2021/04/14 00:50:03;;;;;;;;;;;;;;;;;;5038603;28;20418;-61
2021/04/14 00:52:29;;;;;;;;;;;;;;;;;;5038915;28;20008;-66
2021/04/14 00:54:55;;;;;;;;;;;;;;;;;;5038793;28;19958;-61
2021/04/14 00:57:21;;;;;;;;;;;;;;;;;;5038741;28;19905;-61
2021/04/14 00:59:47;;;;;;;;;;;;;;;;;;5056197;28;19908;-60
2021/04/14 01:02:13;;;;;;;;;;;;;;;;;;5058681;28;19995;-61
2021/04/14 01:04:40;;;;;;;;;;;;;;;;;;5058331;28;20007;-61
2021/04/14 01:07:06;;;;;;;;;;;;;;;;;;5058709;28;19913;-61
2021/04/14 01:09:32;;;;;;;;;;;;;;;;;;5058849;28;19927;-60
2021/04/14 01:11:57;;;;;;;;;;;;;;;;;;5040594;28;20354;-60
2021/04/14 01:14:23;;;;;;;;;;;;;;;;;;5058638;28;19935;-60
2021/04/14 01:16:49;;;;;;;;;;;;;;;;;;5058682;28;19909;-60
2021/04/14 01:19:15;;;;;;;;;;;;;;;;;;5058616;28;19904;-60
2021/04/14 01:21:41;;;;;;;;;;;;;;;;;;5043441;28;19974;-61
2021/04/14 01:24:07;;;;;;;;;;;;;;;;;;5038671;28;20232;-60
2021/04/14 01:26:33;;;;;;;;;;;;;;;;;;5038701;28;19917;-60
2021/04/14 01:28:59;;;;;;;;;;;;;;;;;;5039329;28;19916;-62
2021/04/14 01:31:34;;;;;;;;;;;;;;;;;;5060504;28;19913;-65
2021/04/14 01:34:00;;;;;;;;;;;;;;;;;;5042355;28;19908;-61
2021/04/14 01:36:26;;;;;;;;;;;;;;;;;;5052763;28;20397;-66
2021/04/14 01:38:51;;;;;;;;;;;;;;;;;;5061941;28;19915;-61
2021/04/14 01:41:17;;;;;;;;;;;;;;;;;;5062149;28;19904;-61
2021/04/14 01:43:43;;;;;;;;;;;;;;;;;;5059008;28;19916;-63
2021/04/14 01:46:09;;;;;;;;;;;;;;;;;;5055661;28;20008;-67
2021/04/14 01:48:35;;;;;;;;;;;;;;;;;;5058768;28;19968;-65
2021/04/14 01:51:01;;;;;;;;;;;;;;;;;;5056772;28;19956;-61
2021/04/14 01:53:27;;;;;;;;;;;;;;;;;;5055061;28;20342;-60
2021/04/14 01:55:53;;;;;;;;;;;;;;;;;;5054945;28;19948;-61
2021/04/14 01:58:19;;;;;;;;;;;;;;;;;;5054812;28;19916;-61
2021/04/14 02:00:47;;;;;;;;;;;;;;;;;;5055283;28;19905;-60
2021/04/14 02:03:13;;;;;;;;;;;;;;;;;;5054983;28;20258;-59
2021/04/14 02:05:39;;;;;;;;;;;;;;;;;;5054698;28;19912;-60
2021/04/14 02:08:05;;;;;;;;;;;;;;;;;;5054721;28;19905;-59
2021/04/14 02:10:30;;;;;;;;;;;;;;;;;;5045907;28;19912;-59
2021/04/14 02:12:56;;;;;;;;;;;;;;;;;;5036343;28;19905;-60
2021/04/14 02:15:22;;;;;;;;;;;;;;;;;;5055041;28;20385;-60
2021/04/14 02:17:48;;;;;;;;;;;;;;;;;;5034668;28;20008;-60
2021/04/14 02:20:14;;;;;;;;;;;;;;;;;;5038803;28;19972;-60
2021/04/14 02:22:40;;;;;;;;;;;;;;;;;;5045891;28;20007;-60
2021/04/14 02:25:06;;;;;;;;;;;;;;;;;;5038598;28;20324;-58
2021/04/14 02:27:32;;;;;;;;;;;;;;;;;;5048152;28;19912;-59
2021/04/14 02:29:58;;;;;;;;;;;;;;;;;;5041368;28;19911;-60
2021/04/14 02:32:24;;;;;;;;;;;;;;;;;;5054576;28;20401;-60
2021/04/14 02:34:49;;;;;;;;;;;;;;;;;;5034258;28;20367;-59
2021/04/14 02:37:15;;;;;;;;;;;;;;;;;;5045357;28;19996;-60
2021/04/14 02:39:41;;;;;;;;;;;;;;;;;;5032784;28;20121;-60
2021/04/14 02:42:07;;;;;;;;;;;;;;;;;;5034396;28;19956;-59
2021/04/14 02:44:33;;;;;;;;;;;;;;;;;;5036866;28;19948;-59
2021/04/14 02:46:59;;;;;;;;;;;;;;;;;;5034582;28;20398;-60
2021/04/14 02:49:25;;;;;;;;;;;;;;;;;;5033815;28;19940;-59
2021/04/14 02:51:51;;;;;;;;;;;;;;;;;;5034436;28;19991;-59
2021/04/14 02:54:17;;;;;;;;;;;;;;;;;;5027838;28;20675;-59
2021/04/14 02:56:43;;;;;;;;;;;;;;;;;;5033741;28;19909;-59
2021/04/14 02:59:09;;;;;;;;;;;;;;;;;;5033718;28;19978;-60
2021/04/14 03:01:35;;;;;;;;;;;;;;;;;;5034456;28;19912;-60
2021/04/14 03:04:01;;;;;;;;;;;;;;;;;;5033568;28;20335;-60
2021/04/14 03:06:27;;;;;;;;;;;;;;;;;;5033440;28;20011;-61
2021/04/14 03:08:52;;;;;;;;;;;;;;;;;;5032491;28;20003;-60
2021/04/14 03:11:18;;;;;;;;;;;;;;;;;;5033603;28;19909;-60
2021/04/14 03:13:44;;;;;;;;;;;;;;;;;;5033675;28;19976;-61
2021/04/14 03:16:10;;;;;;;;;;;;;;;;;;5033825;28;19913;-60
2021/04/14 03:18:36;;;;;;;;;;;;;;;;;;5033624;28;19905;-58
2021/04/14 03:21:02;;;;;;;;;;;;;;;;;;5033496;28;19905;-60
2021/04/14 03:23:28;;;;;;;;;;;;;;;;;;5034269;28;19989;-60
2021/04/14 03:25:54;;;;;;;;;;;;;;;;;;5016294;28;19936;-60
2021/04/14 03:28:20;;;;;;;;;;;;;;;;;;5034740;28;20347;-60
2021/04/14 03:30:46;;;;;;;;;;;;;;;;;;5035115;28;19905;-61
2021/04/14 03:33:12;;;;;;;;;;;;;;;;;;5035819;28;19912;-61
2021/04/14 03:35:38;;;;;;;;;;;;;;;;;;5034835;28;19905;-59
2021/04/14 03:38:03;;;;;;;;;;;;;;;;;;5037361;28;19904;-60
2021/04/14 03:40:29;;;;;;;;;;;;;;;;;;5052692;28;19909;-60
2021/04/14 03:42:57;;;;;;;;;;;;;;;;;;5049734;28;19912;-60
2021/04/14 03:45:27;;;;;;;;;;;;;;;;;;5052301;28;19974;-59
2021/04/14 03:47:52;;;;;;;;;;;;;;;;;;5053055;28;20022;-59
2021/04/14 03:50:18;;;;;;;;;;;;;;;;;;5052383;28;20479;-60
2021/04/14 03:52:44;;;;;;;;;;;;;;;;;;5053105;28;19944;-59
2021/04/14 03:55:10;;;;;;;;;;;;;;;;;;5052638;28;19947;-60
2021/04/14 03:57:36;;;;;;;;;;;;;;;;;;5052651;28;20270;-59
2021/04/14 04:00:03;;;;;;;;;;;;;;;;;;5052562;28;19917;-59
2021/04/14 04:02:29;;;;;;;;;;;;;;;;;;5052788;28;19963;-59
2021/04/14 04:04:55;;;;;;;;;;;;;;;;;;5052099;28;19952;-59
2021/04/14 04:07:21;;;;;;;;;;;;;;;;;;5051658;28;20330;-59
2021/04/14 04:09:47;;;;;;;;;;;;;;;;;;5034559;28;19959;-59
2021/04/14 04:12:13;;;;;;;;;;;;;;;;;;5052788;28;19905;-60
2021/04/14 04:14:47;;;;;;;;;;;;;;;;;;5048404;28;19988;-60
2021/04/14 04:17:13;;;;;;;;;;;;;;;;;;5028993;28;20331;-60
2021/04/14 04:19:39;;;;;;;;;;;;;;;;;;5049634;28;19956;-59
2021/04/14 04:22:05;;;;;;;;;;;;;;;;;;5043023;28;19944;-60
2021/04/14 04:24:31;;;;;;;;;;;;;;;;;;5047598;28;19905;-60
2021/04/14 04:26:57;;;;;;;;;;;;;;;;;;5052414;28;20380;-60
2021/04/14 04:29:23;;;;;;;;;;;;;;;;;;5052531;28;19956;-60
2021/04/14 04:31:48;;;;;;;;;;;;;;;;;;5052280;28;19905;-59
2021/04/14 04:34:14;;;;;;;;;;;;;;;;;;5052525;28;19908;-60
2021/04/14 04:36:40;;;;;;;;;;;;;;;;;;5049505;28;19912;-60
2021/04/14 04:39:06;;;;;;;;;;;;;;;;;;5031927;28;19913;-60
2021/04/14 04:41:32;;;;;;;;;;;;;;;;;;5018121;28;20359;-60
2021/04/14 04:43:58;;;;;;;;;;;;;;;;;;5031871;28;20255;-60
2021/04/14 04:46:24;;;;;;;;;;;;;;;;;;5032325;28;19917;-60
2021/04/14 04:48:50;;;;;;;;;;;;;;;;;;5032356;28;20359;-59
2021/04/14 04:51:16;;;;;;;;;;;;;;;;;;5032283;28;19931;-59
2021/04/14 04:53:42;;;;;;;;;;;;;;;;;;5031949;28;19963;-59
2021/04/14 04:56:07;;;;;;;;;;;;;;;;;;5018376;28;19905;-59
2021/04/14 04:58:33;;;;;;;;;;;;;;;;;;5031961;28;20279;-59
2021/04/14 05:00:59;;;;;;;;;;;;;;;;;;5032254;28;19956;-60
2021/04/14 05:03:26;;;;;;;;;;;;;;;;;;5049188;28;19905;-60
2021/04/14 05:05:52;;;;;;;;;;;;;;;;;;5051387;28;19917;-60
2021/04/14 05:08:17;;;;;;;;;;;;;;;;;;5052201;28;20397;-59
2021/04/14 05:10:43;;;;;;;;;;;;;;;;;;5051799;28;19905;-60
2021/04/14 05:13:09;;;;;;;;;;;;;;;;;;5052297;28;19908;-60
2021/04/14 05:15:35;;;;;;;;;;;;;;;;;;5051758;28;19916;-60
2021/04/14 05:18:01;;;;;;;;;;;;;;;;;;5053298;28;20369;-60
2021/04/14 05:20:27;;;;;;;;;;;;;;;;;;5041554;28;20378;-60
2021/04/14 05:22:54;;;;;;;;;;;;;;;;;;5043765;28;19974;-60
2021/04/14 05:25:20;;;;;;;;;;;;;;;;;;5053751;28;19904;-60
2021/04/14 05:27:46;;;;;;;;;;;;;;;;;;5032810;28;20003;-57
2021/04/14 05:30:12;;;;;;;;;;;;;;;;;;5032673;28;19917;-61
2021/04/14 05:32:38;;;;;;;;;;;;;;;;;;5035403;28;19913;-60
2021/04/14 05:35:04;;;;;;;;;;;;;;;;;;5035542;28;19996;-59
2021/04/14 05:37:30;;;;;;;;;;;;;;;;;;5052756;28;19904;-60
2021/04/14 05:39:56;;;;;;;;;;;;;;;;;;5050549;28;19911;-61
2021/04/14 05:42:22;;;;;;;;;;;;;;;;;;5054029;28;19905;-62
2021/04/14 05:44:48;;;;;;;;;;;;;;;;;;5020795;28;20256;-62
2021/04/14 05:47:14;;;;;;;;;;;;;;;;;;5039335;28;19939;-61
2021/04/14 05:49:40;;;;;;;;;;;;;;;;;;5039722;28;19999;-62
2021/04/14 05:52:05;;;;;;;;;;;;;;;;;;5038809;28;19999;-61
2021/04/14 05:54:31;;;;;;;;;;;;;;;;;;5047175;28;19953;-63
2021/04/14 05:56:57;;;;;;;;;;;;;;;;;;5044668;28;19912;-61
2021/04/14 05:59:23;;;;;;;;;;;;;;;;;;5045451;28;19905;-62
2021/04/14 06:01:49;;;;;;;;;;;;;;;;;;5045985;28;19913;-62
2021/04/14 06:04:17;;;;;;;;;;;;;;;;;;5035743;28;19910;-64
2021/04/14 06:06:42;;;;;;;;;;;;;;;;;;5034910;28;20343;-61
2021/04/14 06:09:09;;;;;;;;;;;;;;;;;;5034104;28;19909;-62
2021/04/14 06:11:35;;;;;;;;;;;;;;;;;;5042951;28;20365;-62
2021/04/14 06:14:01;;;;;;;;;;;;;;;;;;5040098;28;20004;-61
2021/04/14 06:16:27;;;;;;;;;;;;;;;;;;5034347;28;19997;-62
2021/04/14 06:18:52;;;;;;;;;;;;;;;;;;5034044;28;19920;-62
2021/04/14 06:21:20;;;;;;;;;;;;;;;;;;5028846;28;19909;-63
2021/04/14 06:23:46;;;;;;;;;;;;;;;;;;5009372;28;19913;-63
2021/04/14 06:26:18;;;;;;;;;;;;;;;;;;5033925;28;19923;-64
2021/04/14 06:28:44;;;;;;;;;;;;;;;;;;5034478;28;19915;-63
2021/04/14 06:31:10;;;;;;;;;;;;;;;;;;5033373;28;20329;-63
2021/04/14 06:33:38;;;;;;;;;;;;;;;;;;5033223;28;20335;-63
2021/04/14 06:36:04;;;;;;;;;;;;;;;;;;5034081;28;19905;-61
2021/04/14 06:38:33;;;;;;;;;;;;;;;;;;5033514;28;20003;-63
2021/04/14 06:41:35;;;;;;;;;;;;;;;;;;5033833;28;20271;-62
2021/04/14 06:43:46;;;;;;;;;;;;;;;;;;5020082;28;19965;-63
2021/04/14 06:46:12;;;;;;;;;;;;;;;;;;5046069;28;19982;-63
2021/04/14 06:48:38;;;;;;;;;;;;;;;;;;5026055;28;20362;-62
2021/04/14 06:51:04;;;;;;;;;;;;;;;;;;4999612;28;19905;-65
2021/04/14 06:53:30;;;;;;;;;;;;;;;;;;5016610;28;19909;-64
2021/04/14 06:55:56;;;;;;;;;;;;;;;;;;5022503;28;19905;-63
2021/04/14 06:58:22;;;;;;;;;;;;;;;;;;5023032;28;19917;-67
2021/04/14 07:00:48;;;;;;;;;;;;;;;;;;5015284;28;19909;-62
2021/04/14 07:03:14;;;;;;;;;;;;;;;;;;5014346;28;20274;-61
2021/04/14 07:05:40;;;;;;;;;;;;;;;;;;5014852;28;19924;-61
2021/04/14 07:08:06;;;;;;;;;;;;;;;;;;5014904;28;19920;-62
2021/04/14 07:10:32;;;;;;;;;;;;;;;;;;5019527;28;19912;-61
2021/04/14 07:12:58;;;;;;;;;;;;;;;;;;5016605;28;19929;-62
2021/04/14 07:15:24;;;;;;;;;;;;;;;;;;5015455;28;20362;-61
2021/04/14 07:17:49;;;;;;;;;;;;;;;;;;5016350;28;19913;-62
2021/04/14 07:20:16;;;;;;;;;;;;;;;;;;5016574;28;19913;-63
2021/04/14 07:22:42;;;;;;;;;;;;;;;;;;5015264;28;19909;-62
2021/04/14 07:25:07;;;;;;;;;;;;;;;;;;5028876;28;19912;-62
2021/04/14 07:27:33;;;;;;;;;;;;;;;;;;5025407;28;19918;-63
2021/04/14 07:29:59;;;;;;;;;;;;;;;;;;5014262;28;19955;-63
2021/04/14 07:32:25;;;;;;;;;;;;;;;;;;5023762;28;19909;-63
2021/04/14 07:34:51;;;;;;;;;;;;;;;;;;5028694;28;20475;-63
2021/04/14 07:37:17;;;;;;;;;;;;;;;;;;5034675;28;19996;-63
2021/04/14 07:39:43;;;;;;;;;;;;;;;;;;5043534;28;20987;-62
2021/04/14 07:42:09;;;;;;;;;;;;;;;;;;5031278;28;20051;-61
2021/04/14 07:44:35;;;;;;;;;;;;;;;;;;5038373;28;20003;-62
2021/04/14 07:47:01;;;;;;;;;;;;;;;;;;5022381;28;19932;-61
2021/04/14 07:49:27;;;;;;;;;;;;;;;;;;5026212;28;19909;-62
2021/04/14 07:51:53;;;;;;;;;;;;;;;;;;5022195;28;20051;-61
2021/04/14 07:54:22;;;;;;;;;;;;;;;;;;5037740;28;19991;-61
2021/04/14 07:56:48;;;;;;;;;;;;;;;;;;5013438;28;19910;-61
2021/04/14 07:59:14;;;;;;;;;;;;;;;;;;5020825;28;20343;-61
2021/04/14 08:01:40;;;;;;;;;;;;;;;;;;5013972;28;19998;-61
2021/04/14 08:04:06;;;;;;;;;;;;;;;;;;5012657;28;19940;-61
2021/04/14 08:06:32;;;;;;;;;;;;;;;;;;5017449;28;20015;-61
2021/04/14 08:08:58;;;;;;;;;;;;;;;;;;5014109;28;19996;-61
2021/04/14 08:11:27;;;;;;;;;;;;;;;;;;5016685;28;20466;-61
2021/04/14 08:13:54;;;;;;;;;;;;;;;;;;5014142;28;19915;-61
2021/04/14 08:16:20;;;;;;;;;;;;;;;;;;5028819;28;19972;-61
2021/04/14 08:18:46;;;;;;;;;;;;;;;;;;5013019;28;20374;-61
2021/04/14 08:21:12;;;;;;;;;;;;;;;;;;5013027;28;19992;-60
2021/04/14 08:23:38;;;;;;;;;;;;;;;;;;5013080;28;20008;-63
2021/04/14 08:26:04;;;;;;;;;;;;;;;;;;5013411;28;20004;-62
2021/04/14 08:28:31;;;;;;;;;;;;;;;;;;5012072;28;20342;-62
2021/04/14 08:30:56;;;;;;;;;;;;;;;;;;5017765;28;20359;-62
2021/04/14 08:33:22;;;;;;;;;;;;;;;;;;5016352;28;19914;-60
2021/04/14 08:35:48;;;;;;;;;;;;;;;;;;5020663;28;19905;-60
2021/04/14 08:38:14;;;;;;;;;;;;;;;;;;5029405;28;19912;-61
2021/04/14 08:40:40;;;;;;;;;;;;;;;;;;5032438;28;19909;-61
2021/04/14 08:43:06;;;;;;;;;;;;;;;;;;5032501;28;20347;-60
2021/04/14 08:45:34;;;;;;;;;;;;;;;;;;5032045;28;20327;-61
2021/04/14 08:48:00;;;;;;;;;;;;;;;;;;5032009;28;19971;-61
2021/04/14 08:50:27;;;;;;;;;;;;;;;;;;5031947;28;20306;-61
2021/04/14 08:52:54;;;;;;;;;;;;;;;;;;5032879;28;19915;-61
2021/04/14 08:55:21;;;;;;;;;;;;;;;;;;5036392;28;20478;-60
2021/04/14 08:57:46;;;;;;;;;;;;;;;;;;5035974;28;20359;-60
2021/04/14 09:00:12;;;;;;;;;;;;;;;;;;5036374;28;19905;-63
2021/04/14 09:02:38;;;;;;;;;;;;;;;;;;5036146;28;19905;-62
2021/04/14 09:05:04;;;;;;;;;;;;;;;;;;5035894;28;19904;-62
2021/04/14 09:07:31;;;;;;;;;;;;;;;;;;5035976;28;19913;-61
2021/04/14 09:09:57;;;;;;;;;;;;;;;;;;5035705;28;19908;-62
2021/04/14 09:12:23;;;;;;;;;;;;;;;;;;5036133;28;19912;-58
2021/04/14 09:14:49;;;;;;;;;;;;;;;;;;5035826;28;19936;-59
2021/04/14 09:17:15;;;;;;;;;;;;;;;;;;5036438;28;19944;-62
2021/04/14 09:19:41;;;;;;;;;;;;;;;;;;5035681;28;19949;-60
2021/04/14 09:22:06;;;;;;;;;;;;;;;;;;5035882;28;19905;-60
2021/04/14 09:24:32;;;;;;;;;;;;;;;;;;5035583;28;19996;-60
2021/04/14 09:26:58;;;;;;;;;;;;;;;;;;5035759;28;20007;-62
2021/04/14 09:29:24;;;;;;;;;;;;;;;;;;5035435;28;19952;-60
2021/04/14 09:31:51;;;;;;;;;;;;;;;;;;5035781;28;20378;-62
2021/04/14 09:34:17;;;;;;;;;;;;;;;;;;5030362;28;19963;-59
2021/04/14 09:36:49;;;;;;;;;;;;;;;;;;5040640;28;19909;-61
2021/04/14 09:39:16;;;;;;;;;;;;;;;;;;5026335;28;19909;-63
2021/04/14 09:41:42;;;;;;;;;;;;;;;;;;5032975;28;19909;-61
2021/04/14 09:44:08;;;;;;;;;;;;;;;;;;5024799;28;20302;-63
2021/04/14 09:46:34;;;;;;;;;;;;;;;;;;5045878;28;19917;-62
2021/04/14 09:49:00;;;;;;;;;;;;;;;;;;5022202;28;19916;-62
2021/04/14 09:51:26;;;;;;;;;;;;;;;;;;5016159;28;19917;-62
2021/04/14 09:53:57;;;;;;;;;;;;;;;;;;5014554;28;19910;-61
2021/04/14 09:56:23;;;;;;;;;;;;;;;;;;5030197;28;19905;-62
2021/04/14 09:58:49;;;;;;;;;;;;;;;;;;5035362;28;19913;-62
2021/04/14 10:01:15;;;;;;;;;;;;;;;;;;5034038;28;20275;-62
2021/04/14 10:03:44;;;;;;;;;;;;;;;;;;5022363;28;20306;-62
2021/04/14 10:06:10;;;;;;;;;;;;;;;;;;5016152;28;20101;-65
2021/04/14 10:08:35;;;;;;;;;;;;;;;;;;5019859;28;20003;-64
2021/04/14 10:11:01;;;;;;;;;;;;;;;;;;5032709;28;19909;-61
2021/04/14 10:13:27;;;;;;;;;;;;;;;;;;5028701;28;19952;-65
2021/04/14 10:15:53;;;;;;;;;;;;;;;;;;5016454;28;19914;-62
2021/04/14 10:18:19;;;;;;;;;;;;;;;;;;5020071;28;20405;-65
2021/04/14 10:20:45;;;;;;;;;;;;;;;;;;5019930;28;19928;-61
2021/04/14 10:23:11;;;;;;;;;;;;;;;;;;5017842;28;19948;-64
2021/04/14 10:25:37;;;;;;;;;;;;;;;;;;5017284;28;19916;-63
2021/04/14 10:28:03;;;;;;;;;;;;;;;;;;5016927;28;19913;-60
2021/04/14 10:30:29;;;;;;;;;;;;;;;;;;5029128;28;19913;-62
2021/04/14 10:32:55;;;;;;;;;;;;;;;;;;5028631;28;19986;-61
2021/04/14 10:35:21;;;;;;;;;;;;;;;;;;5019966;28;19948;-61
2021/04/14 10:37:47;;;;;;;;;;;;;;;;;;5017206;28;19944;-66
2021/04/14 10:40:18;;;;;;;;;;;;;;;;;;5017357;28;19916;-62
2021/04/14 10:42:44;;;;;;;;;;;;;;;;;;5014456;28;19955;-62
2021/04/14 10:45:10;;;;;;;;;;;;;;;;;;5016672;28;19941;-61
2021/04/14 10:47:36;;;;;;;;;;;;;;;;;;5020182;28;20323;-60
2021/04/14 10:50:02;;;;;;;;;;;;;;;;;;5022522;28;19909;-60
2021/04/14 10:52:28;;;;;;;;;;;;;;;;;;5033946;28;19935;-62
2021/04/14 10:54:54;;;;;;;;;;;;;;;;;;5033905;28;19911;-61
2021/04/14 10:57:20;;;;;;;;;;;;;;;;;;5033853;28;19905;-61
2021/04/14 10:59:46;;;;;;;;;;;;;;;;;;5033962;28;19912;-63
2021/04/14 11:02:12;;;;;;;;;;;;;;;;;;5034102;28;20031;-62
2021/04/14 11:04:38;;;;;;;;;;;;;;;;;;5034135;28;20353;-61
2021/04/14 11:07:04;;;;;;;;;;;;;;;;;;5033712;28;20004;-62
2021/04/14 11:09:30;;;;;;;;;;;;;;;;;;5033714;28;19913;-66
2021/04/14 11:11:55;;;;;;;;;;;;;;;;;;5033816;28;19905;-60
2021/04/14 11:14:21;;;;;;;;;;;;;;;;;;5041801;28;20362;-61
2021/04/14 11:16:47;;;;;;;;;;;;;;;;;;5053223;28;20347;-61
2021/04/14 11:19:13;;;;;;;;;;;;;;;;;;5047779;28;19918;-61
2021/04/14 11:21:39;;;;;;;;;;;;;;;;;;5020098;28;19909;-61
2021/04/14 11:24:05;;;;;;;;;;;;;;;;;;5015838;28;19905;-61
2021/04/14 11:26:31;;;;;;;;;;;;;;;;;;5016884;28;19913;-62
2021/04/14 11:28:57;;;;;;;;;;;;;;;;;;5014595;28;19910;-61
2021/04/14 11:31:23;;;;;;;;;;;;;;;;;;5015388;28;20278;-61
2021/04/14 11:33:49;;;;;;;;;;;;;;;;;;5014005;28;20130;-61
2021/04/14 11:36:15;;;;;;;;;;;;;;;;;;5013343;28;19913;-60
2021/04/14 11:38:41;;;;;;;;;;;;;;;;;;5020515;28;20273;-61
2021/04/14 11:41:06;;;;;;;;;;;;;;;;;;5018730;28;20457;-62
2021/04/14 11:43:32;;;;;;;;;;;;;;;;;;5017781;28;19905;-62
2021/04/14 11:45:58;;;;;;;;;;;;;;;;;;5014292;28;19921;-60
2021/04/14 11:48:24;;;;;;;;;;;;;;;;;;5041730;28;19904;-61
2021/04/14 11:50:50;;;;;;;;;;;;;;;;;;5033007;28;19912;-62
2021/04/14 11:53:16;;;;;;;;;;;;;;;;;;5033900;28;20255;-61
2021/04/14 11:55:42;;;;;;;;;;;;;;;;;;5036319;28;19916;-61
2021/04/14 11:58:08;;;;;;;;;;;;;;;;;;5042836;28;19905;-61
2021/04/14 12:00:34;;;;;;;;;;;;;;;;;;5032309;28;20429;-62
2021/04/14 12:03:00;;;;;;;;;;;;;;;;;;5033150;28;19952;-62
2021/04/14 12:05:26;;;;;;;;;;;;;;;;;;5032175;28;19905;-62
2021/04/14 12:07:52;;;;;;;;;;;;;;;;;;5033180;28;20014;-62
2021/04/14 12:10:18;;;;;;;;;;;;;;;;;;5032313;28;19905;-62
2021/04/14 12:12:44;;;;;;;;;;;;;;;;;;5036334;28;19911;-60
2021/04/14 12:15:10;;;;;;;;;;;;;;;;;;5042800;28;19966;-62
2021/04/14 12:17:36;;;;;;;;;;;;;;;;;;5032532;28;19909;-62
2021/04/14 12:20:02;;;;;;;;;;;;;;;;;;5032110;28;19905;-62
2021/04/14 12:22:29;;;;;;;;;;;;;;;;;;5032873;28;19904;-66
2021/04/14 12:24:55;;;;;;;;;;;;;;;;;;5034781;28;19959;-62
2021/04/14 12:27:21;;;;;;;;;;;;;;;;;;5035529;28;19917;-66
2021/04/14 12:29:47;;;;;;;;;;;;;;;;;;5033027;28;19912;-63
2021/04/14 12:32:13;;;;;;;;;;;;;;;;;;5032208;28;20012;-64
2021/04/14 12:34:39;;;;;;;;;;;;;;;;;;5032652;28;20366;-65
2021/04/14 12:37:05;;;;;;;;;;;;;;;;;;5032297;28;19959;-64
2021/04/14 12:39:30;;;;;;;;;;;;;;;;;;5032048;28;19960;-63
2021/04/14 12:41:56;;;;;;;;;;;;;;;;;;5032534;28;19981;-64
2021/04/14 12:44:23;;;;;;;;;;;;;;;;;;5032058;28;19963;-64
2021/04/14 12:46:49;;;;;;;;;;;;;;;;;;5026988;28;19921;-64
2021/04/14 12:49:15;;;;;;;;;;;;;;;;;;5027798;28;20311;-63
2021/04/14 12:51:41;;;;;;;;;;;;;;;;;;5025280;28;19905;-64
2021/04/14 12:54:07;;;;;;;;;;;;;;;;;;5031872;28;19909;-64
2021/04/14 12:56:33;;;;;;;;;;;;;;;;;;5045336;28;19911;-62
2021/04/14 12:58:59;;;;;;;;;;;;;;;;;;5035451;28;20059;-64
2021/04/14 13:01:25;;;;;;;;;;;;;;;;;;5035163;28;19909;-64
2021/04/14 13:03:50;;;;;;;;;;;;;;;;;;5020055;28;20000;-62
2021/04/14 13:06:17;;;;;;;;;;;;;;;;;;5016602;28;19921;-63
2021/04/14 13:08:43;;;;;;;;;;;;;;;;;;5010765;28;19916;-63
2021/04/14 13:11:09;;;;;;;;;;;;;;;;;;5005733;28;20290;-63
2021/04/14 13:13:35;;;;;;;;;;;;;;;;;;5014255;28;20012;-63
2021/04/14 13:16:02;;;;;;;;;;;;;;;;;;5008053;28;20009;-63
2021/04/14 13:18:28;;;;;;;;;;;;;;;;;;5013952;28;19967;-63
2021/04/14 13:20:54;;;;;;;;;;;;;;;;;;5005563;28;20376;-63
2021/04/14 13:23:20;;;;;;;;;;;;;;;;;;5012969;28;19910;-64
2021/04/14 13:25:46;;;;;;;;;;;;;;;;;;5011006;28;20003;-63
2021/04/14 13:28:13;;;;;;;;;;;;;;;;;;5013644;28;20020;-64
2021/04/14 13:30:39;;;;;;;;;;;;;;;;;;5012907;28;19909;-64
2021/04/14 13:33:05;;;;;;;;;;;;;;;;;;5007950;28;19956;-61
2021/04/14 13:35:31;;;;;;;;;;;;;;;;;;5012155;28;19952;-62
2021/04/14 13:37:58;;;;;;;;;;;;;;;;;;5013119;28;20316;-61
2021/04/14 13:40:24;;;;;;;;;;;;;;;;;;5014123;28;19905;-64
2021/04/14 13:42:52;;;;;;;;;;;;;;;;;;5016553;28;19979;-63
2021/04/14 13:45:18;;;;;;;;;;;;;;;;;;5010798;28;19917;-62
2021/04/14 13:47:44;;;;;;;;;;;;;;;;;;5033260;28;19928;-64
2021/04/14 13:50:10;;;;;;;;;;;;;;;;;;5034929;28;19955;-64
2021/04/14 13:52:35;;;;;;;;;;;;;;;;;;5035132;28;19905;-63
2021/04/14 13:55:01;;;;;;;;;;;;;;;;;;5035459;28;19913;-64
2021/04/14 13:57:27;;;;;;;;;;;;;;;;;;5034466;28;20370;-64
2021/04/14 13:59:53;;;;;;;;;;;;;;;;;;5034775;28;20364;-63
2021/04/14 14:02:19;;;;;;;;;;;;;;;;;;5035116;28;19947;-63
2021/04/14 14:04:45;;;;;;;;;;;;;;;;;;5034640;28;19955;-61
2021/04/14 14:07:15;;;;;;;;;;;;;;;;;;5034905;28;19920;-62
2021/04/14 14:09:41;;;;;;;;;;;;;;;;;;5047359;28;19905;-63
2021/04/14 14:12:07;;;;;;;;;;;;;;;;;;5034565;28;20274;-62
2021/04/14 14:14:33;;;;;;;;;;;;;;;;;;5033066;28;19909;-63
2021/04/14 14:16:59;;;;;;;;;;;;;;;;;;5034763;28;19920;-63
2021/04/14 14:19:25;;;;;;;;;;;;;;;;;;5034496;28;19905;-62
2021/04/14 14:21:51;;;;;;;;;;;;;;;;;;5034689;28;19905;-62
2021/04/14 14:24:17;;;;;;;;;;;;;;;;;;5035283;28;19905;-63
2021/04/14 14:26:43;;;;;;;;;;;;;;;;;;5042352;28;19917;-62
2021/04/14 14:29:09;;;;;;;;;;;;;;;;;;5034405;28;19975;-62
2021/04/14 14:31:35;;;;;;;;;;;;;;;;;;5034461;28;19905;-61
2021/04/14 14:34:01;;;;;;;;;;;;;;;;;;5034617;28;20394;-62
2021/04/14 14:36:27;;;;;;;;;;;;;;;;;;5034456;28;19909;-63
2021/04/14 14:38:53;;;;;;;;;;;;;;;;;;5034177;28;19941;-62
2021/04/14 14:41:19;;;;;;;;;;;;;;;;;;5034228;28;19944;-65
2021/04/14 14:43:45;;;;;;;;;;;;;;;;;;5034045;28;19955;-64
2021/04/14 14:46:11;;;;;;;;;;;;;;;;;;5033987;28;19928;-64
2021/04/14 14:48:37;;;;;;;;;;;;;;;;;;5034088;28;19909;-62
2021/04/14 14:51:03;;;;;;;;;;;;;;;;;;5032628;28;19912;-63
2021/04/14 14:53:29;;;;;;;;;;;;;;;;;;5036624;28;19905;-62
2021/04/14 14:55:55;;;;;;;;;;;;;;;;;;5033847;28;20411;-65
2021/04/14 14:58:21;;;;;;;;;;;;;;;;;;5033508;28;20020;-65
2021/04/14 15:00:47;;;;;;;;;;;;;;;;;;5034224;28;20004;-65
2021/04/14 15:03:13;;;;;;;;;;;;;;;;;;5035367;28;20350;-64
2021/04/14 15:05:39;;;;;;;;;;;;;;;;;;5037209;28;19941;-64
2021/04/14 15:08:05;;;;;;;;;;;;;;;;;;5033643;28;19909;-62
2021/04/14 15:10:32;;;;;;;;;;;;;;;;;;5033849;28;19992;-68
2021/04/14 15:12:58;;;;;;;;;;;;;;;;;;5033595;28;20343;-68
2021/04/14 15:15:24;;;;;;;;;;;;;;;;;;5033478;28;19995;-62
2021/04/14 15:17:50;;;;;;;;;;;;;;;;;;5033594;28;19917;-67
2021/04/14 15:20:16;;;;;;;;;;;;;;;;;;5033398;28;20040;-68
2021/04/14 15:22:45;;;;;;;;;;;;;;;;;;5020162;28;20347;-68
2021/04/14 15:25:11;;;;;;;;;;;;;;;;;;5033052;28;19912;-61
2021/04/14 15:27:37;;;;;;;;;;;;;;;;;;5033440;28;19913;-63
2021/04/14 15:30:03;;;;;;;;;;;;;;;;;;5027707;28;20259;-62
2021/04/14 15:32:28;;;;;;;;;;;;;;;;;;5026246;28;19931;-63
2021/04/14 15:34:57;;;;;;;;;;;;;;;;;;5030518;28;19953;-64
2021/04/14 15:37:23;;;;;;;;;;;;;;;;;;5031017;28;19913;-65
2021/04/14 15:39:49;;;;;;;;;;;;;;;;;;5031027;28;19928;-60
2021/04/14 15:42:15;;;;;;;;;;;;;;;;;;5030300;28;20405;-67
2021/04/14 15:44:41;;;;;;;;;;;;;;;;;;5011625;28;19960;-61
2021/04/14 15:47:07;;;;;;;;;;;;;;;;;;5028498;28;19951;-64
2021/04/14 15:49:33;;;;;;;;;;;;;;;;;;5028950;28;19905;-65
2021/04/14 15:51:59;;;;;;;;;;;;;;;;;;5029228;28;20439;-67
2021/04/14 15:54:25;;;;;;;;;;;;;;;;;;5027228;28;19913;-67
2021/04/14 15:56:51;;;;;;;;;;;;;;;;;;5012034;28;19912;-63
2021/04/14 15:59:17;;;;;;;;;;;;;;;;;;5029239;28;19913;-64
2021/04/14 16:01:46;;;;;;;;;;;;;;;;;;5028644;28;19913;-65
2021/04/14 16:04:13;;;;;;;;;;;;;;;;;;5028570;28;19959;-64
2021/04/14 16:06:38;;;;;;;;;;;;;;;;;;5009448;28;19971;-68
2021/04/14 16:09:04;;;;;;;;;;;;;;;;;;5029760;28;19944;-63
2021/04/14 16:11:30;;;;;;;;;;;;;;;;;;5030605;28;19962;-64
2021/04/14 16:13:56;;;;;;;;;;;;;;;;;;5027961;28;19909;-66
2021/04/14 16:16:22;;;;;;;;;;;;;;;;;;5030840;28;19963;-69
2021/04/14 16:18:48;;;;;;;;;;;;;;;;;;5023444;28;19909;-61
2021/04/14 16:21:14;;;;;;;;;;;;;;;;;;5024412;28;20318;-70
2021/04/14 16:23:41;;;;;;;;;;;;;;;;;;5029955;28;20381;-63
2021/04/14 16:26:07;;;;;;;;;;;;;;;;;;5029209;28;19916;-64
2021/04/14 16:28:33;;;;;;;;;;;;;;;;;;5027959;28;19927;-61
2021/04/14 16:31:00;;;;;;;;;;;;;;;;;;5022998;28;20828;-61
2021/04/14 16:33:26;;;;;;;;;;;;;;;;;;5032010;28;19962;-69
2021/04/14 16:35:52;;;;;;;;;;;;;;;;;;5030470;28;19984;-65
2021/04/14 16:38:19;;;;;;;;;;;;;;;;;;5025815;28;19917;-70